First Ferry Viii — VRS4306 — position and weather

sailwx.info

Track history (hours):
 
Tides and Currents Weather Stations Pressure Air Temp Water Temp Dewpoint Dewpoint Depression Visibility Wind Speed Wind Dir Waves Ship Positions

First Ferry Viii

Last reported at 2015-Jul-28 09:05 UTC. Time now 2015-Jul-28 10:22 UTC.
Position N 22°16' E 114°04'.

Length 36 m; draft 1.8 m.

Type: High speed craft. MMSI: 477995030.

Date/timePositionNaut miles runAvg speedWind from/ knotsBaromVisibWave heightAir tempDewpointWater temp
2015-Jul-28 09:05N 22°16' E 114°04'5 9.9
2015-Jul-28 08:33N 22°17' E 114°10'0 0.0
2015-Jul-28 06:33N 22°17' E 114°10'6 3.8
2015-Jul-28 05:05N 22°15' E 114°04'610.7
2015-Jul-28 04:34N 22°17' E 114°10'3 2.5
2015-Jul-28 03:33N 22°20' E 114°09'0 0.0
2015-Jul-28 02:33N 22°20' E 114°09'2 1.2
2015-Jul-28 00:34N 22°17' E 114°10'7 7.3
2015-Jul-27 23:33N 22°16' E 114°02'10 9.7
2015-Jul-27 22:33N 22°19' E 114°12'0 0.0
2015-Jul-27 21:34N 22°19' E 114°12'0 0.0
2015-Jul-27 20:34N 22°19' E 114°12'0 0.0
2015-Jul-27 19:34N 22°19' E 114°12'0 0.0
2015-Jul-27 18:34N 22°19' E 114°12'0 0.0
2015-Jul-27 17:34N 22°19' E 114°12'0 0.0
2015-Jul-27 16:34N 22°19' E 114°12'0 0.0
2015-Jul-27 15:33N 22°19' E 114°12'0 0.0
2015-Jul-27 14:33N 22°19' E 114°12'0 0.0
2015-Jul-27 13:34N 22°19' E 114°12'0 0.0
2015-Jul-27 12:33N 22°19' E 114°12'7 5.9
2015-Jul-27 11:19N 22°16' E 114°05'5 6.4
2015-Jul-27 10:33N 22°17' E 114°10'3 2.7
2015-Jul-27 09:34N 22°19' E 114°12'4 3.6
2015-Jul-27 08:33N 22°18' E 114°08'4 3.2
2015-Jul-27 07:27N 22°17' E 114°05'5 5.7
2015-Jul-27 06:33N 22°17' E 114°10'0 0.2
2015-Jul-27 04:33N 22°17' E 114°10'0 0.0
2015-Jul-27 02:33N 22°17' E 114°10'1 0.9
2015-Jul-27 01:33N 22°17' E 114°11'6 2.4
2015-Jul-26 23:06N 22°16' E 114°04'713.4
2015-Jul-26 22:34N 22°19' E 114°12'0 0.3
2015-Jul-26 21:33N 22°19' E 114°12'0 0.0
2015-Jul-26 20:34N 22°19' E 114°12'0 0.0
2015-Jul-26 19:34N 22°19' E 114°12'0 0.0
2015-Jul-26 18:33N 22°19' E 114°12'0 0.0
2015-Jul-26 17:34N 22°19' E 114°12'0 0.0
2015-Jul-26 16:34N 22°19' E 114°12'0 0.0
2015-Jul-26 15:33N 22°19' E 114°12'0 0.0
2015-Jul-26 14:33N 22°19' E 114°12'0 0.0
2015-Jul-26 13:34N 22°19' E 114°12'3 2.6
2015-Jul-26 12:33N 22°17' E 114°10'5 4.2
2015-Jul-26 11:20N 22°16' E 114°04'4 4.6
2015-Jul-26 10:33N 22°17' E 114°08'3 0.6
2015-Jul-26 06:20N 22°16' E 114°05'5 5.8
2015-Jul-26 05:32N 22°19' E 114°09'0 0.4
2015-Jul-26 04:33N 22°20' E 114°09'2 2.4
2015-Jul-26 03:34N 22°17' E 114°10'5 3.7
2015-Jul-26 02:18N 22°16' E 114°05'4 6.0
2015-Jul-26 01:34N 22°17' E 114°09'6 4.5
2015-Jul-26 00:20N 22°15' E 114°04'7 8.8
2015-Jul-25 23:33N 22°18' E 114°11'3 2.6
2015-Jul-25 22:33N 22°20' E 114°09'0 0.1
2015-Jul-25 21:33N 22°20' E 114°09'0 0.0
2015-Jul-25 20:33N 22°20' E 114°09'0 0.0
2015-Jul-25 19:33N 22°20' E 114°09'0 0.0
2015-Jul-25 18:33N 22°20' E 114°09'0 0.0
2015-Jul-25 17:33N 22°20' E 114°09'0 0.0
2015-Jul-25 16:33N 22°20' E 114°09'0 0.0
2015-Jul-25 15:33N 22°20' E 114°09'0 0.0
2015-Jul-25 14:33N 22°20' E 114°09'3 2.8
2015-Jul-25 13:33N 22°19' E 114°12'3 2.6
2015-Jul-25 12:34N 22°17' E 114°09'6 4.6
2015-Jul-25 11:21N 22°15' E 114°04'6 7.0
2015-Jul-25 10:33N 22°17' E 114°10'0 0.0
2015-Jul-25 06:33N 22°17' E 114°10'0 0.0
2015-Jul-25 04:33N 22°17' E 114°10'5 3.8
2015-Jul-25 03:06N 22°15' E 114°04'610.0
2015-Jul-25 02:33N 22°17' E 114°10'3 2.6
2015-Jul-25 01:33N 22°19' E 114°12'7 3.1
2015-Jul-24 23:12N 22°16' E 114°05'711.3
2015-Jul-24 22:33N 22°19' E 114°12'0 0.0
2015-Jul-24 21:33N 22°19' E 114°12'0 0.1
2015-Jul-24 20:33N 22°19' E 114°12'0 0.1
2015-Jul-24 19:33N 22°19' E 114°12'0 0.0
2015-Jul-24 18:33N 22°19' E 114°12'0 0.0
2015-Jul-24 17:33N 22°19' E 114°12'0 0.0
2015-Jul-24 16:33N 22°19' E 114°12'0 0.0
2015-Jul-24 15:33N 22°19' E 114°12'0 0.0
2015-Jul-24 14:33N 22°19' E 114°12'0 0.0
2015-Jul-24 13:33N 22°19' E 114°12'0 0.0
2015-Jul-24 12:33N 22°19' E 114°12'7 5.2
2015-Jul-24 11:17N 22°16' E 114°05'4 5.8
2015-Jul-24 10:33N 22°17' E 114°10'5 3.8
2015-Jul-24 09:07N 22°16' E 114°04'5 9.9
2015-Jul-24 08:33N 22°17' E 114°10'5 3.7
2015-Jul-24 07:06N 22°16' E 114°04'5 9.8
2015-Jul-24 06:33N 22°17' E 114°10'5 3.3
2015-Jul-24 05:04N 22°16' E 114°05'5 9.5
2015-Jul-24 04:33N 22°17' E 114°10'5 3.2
2015-Jul-24 03:03N 22°16' E 114°05'5 9.7
2015-Jul-24 02:33N 22°17' E 114°10'2 2.5
2015-Jul-24 01:33N 22°20' E 114°09'5 1.9
2015-Jul-23 23:06N 22°17' E 114°05'712.4
2015-Jul-23 22:33N 22°18' E 114°12'1 0.8
2015-Jul-23 21:33N 22°19' E 114°12'0 0.0
2015-Jul-23 20:33N 22°19' E 114°12'0 0.1
2015-Jul-23 19:33N 22°19' E 114°12'0 0.1
2015-Jul-23 18:33N 22°19' E 114°12'0 0.0
2015-Jul-23 17:33N 22°19' E 114°12'0 0.1
2015-Jul-23 16:33N 22°19' E 114°12'0 0.1
2015-Jul-23 15:33N 22°19' E 114°12'0 0.0
2015-Jul-23 14:33N 22°19' E 114°12'0 0.0
2015-Jul-23 13:33N 22°19' E 114°12'0 0.0
2015-Jul-23 12:33N 22°19' E 114°12'5 3.6
2015-Jul-23 11:12N 22°17' E 114°07'2 1.4
2015-Jul-23 09:29N 22°17' E 114°04'5 5.4
2015-Jul-23 08:33N 22°19' E 114°09'1 1.0
2015-Jul-23 07:33N 22°20' E 114°09'0 0.0
2015-Jul-23 06:32N 22°20' E 114°09'0 0.0
2015-Jul-23 05:27N 22°20' E 114°09'0 0.0
2015-Jul-23 04:33N 22°20' E 114°09'0 0.0
2015-Jul-23 03:30N 22°20' E 114°09'0 0.0
2015-Jul-23 02:33N 22°20' E 114°09'0 0.3
2015-Jul-23 01:17N 22°19' E 114°09'8 3.8
2015-Jul-22 23:16N 22°16' E 114°02'1013.8
2015-Jul-22 22:33N 22°19' E 114°12'0 0.0
2015-Jul-22 21:33N 22°19' E 114°12'0 0.0
2015-Jul-22 20:33N 22°19' E 114°12'0 0.0
2015-Jul-22 19:33N 22°19' E 114°12'0 0.0
2015-Jul-22 18:33N 22°19' E 114°12'0 0.0
2015-Jul-22 17:33N 22°19' E 114°12'0 0.0
2015-Jul-22 16:33N 22°19' E 114°12'0 0.0
2015-Jul-22 15:33N 22°19' E 114°12'0 0.0
2015-Jul-22 14:33N 22°19' E 114°12'0 0.0
2015-Jul-22 13:33N 22°19' E 114°12'0 0.0
2015-Jul-22 12:33N 22°19' E 114°12'8 6.3
2015-Jul-22 11:21N 22°16' E 114°04'5 6.6
2015-Jul-22 10:33N 22°17' E 114°10'3 2.6
2015-Jul-22 09:33N 22°19' E 114°12'0 0.0
2015-Jul-22 08:33N 22°19' E 114°12'0 0.0
2015-Jul-22 07:34N 22°19' E 114°12'1 1.0
2015-Jul-22 06:33N 22°18' E 114°12'2 1.0
2015-Jul-22 04:33N 22°17' E 114°10'4 3.1
2015-Jul-22 03:07N 22°16' E 114°05'4 8.0
2015-Jul-22 02:33N 22°17' E 114°10'2 2.5
2015-Jul-22 01:33N 22°20' E 114°09'5 1.9
2015-Jul-21 23:09N 22°17' E 114°05'711.2
2015-Jul-21 22:33N 22°19' E 114°12'0 0.1
2015-Jul-21 21:33N 22°19' E 114°12'0 0.0
2015-Jul-21 20:33N 22°19' E 114°12'0 0.0
2015-Jul-21 19:33N 22°19' E 114°12'0 0.0
2015-Jul-21 18:33N 22°19' E 114°12'0 0.0
2015-Jul-21 17:33N 22°19' E 114°12'0 0.0
2015-Jul-21 16:33N 22°19' E 114°12'0 0.0
2015-Jul-21 15:33N 22°19' E 114°12'0 0.0
2015-Jul-21 14:33N 22°19' E 114°12'0 0.0
2015-Jul-21 13:33N 22°19' E 114°12'0 0.0
2015-Jul-21 12:33N 22°19' E 114°12'8 6.4
2015-Jul-21 11:19N 22°15' E 114°04'5 7.2
2015-Jul-21 10:33N 22°17' E 114°10'3 2.7
2015-Jul-21 09:33N 22°19' E 114°12'0 0.0
2015-Jul-21 08:33N 22°19' E 114°12'0 0.0
2015-Jul-21 07:33N 22°19' E 114°12'2 1.6
2015-Jul-21 06:33N 22°18' E 114°11'1 0.7
2015-Jul-21 04:33N 22°17' E 114°10'0 0.0
2015-Jul-21 02:33N 22°17' E 114°10'1 0.9
2015-Jul-21 01:33N 22°17' E 114°10'6 2.7
2015-Jul-20 23:14N 22°17' E 114°04'711.1
2015-Jul-20 22:33N 22°18' E 114°12'1 1.0
2015-Jul-20 21:33N 22°19' E 114°12'0 0.0
2015-Jul-20 20:33N 22°19' E 114°12'0 0.0
2015-Jul-20 19:33N 22°19' E 114°12'0 0.0
2015-Jul-20 18:33N 22°19' E 114°12'0 0.0
2015-Jul-20 17:33N 22°19' E 114°12'0 0.0
2015-Jul-20 16:33N 22°19' E 114°12'0 0.0
2015-Jul-20 15:33N 22°19' E 114°12'0 0.0
2015-Jul-20 14:33N 22°19' E 114°12'0 0.0
2015-Jul-20 13:33N 22°19' E 114°12'0 0.0
2015-Jul-20 12:33N 22°19' E 114°12'8 6.3
2015-Jul-20 11:20N 22°16' E 114°04'5 6.8
2015-Jul-20 10:33N 22°17' E 114°10'3 2.5
2015-Jul-20 09:33N 22°20' E 114°09'0 0.0
2015-Jul-20 08:33N 22°20' E 114°09'0 0.0
2015-Jul-20 07:33N 22°20' E 114°09'1 1.3
2015-Jul-20 06:33N 22°18' E 114°09'1 0.6
2015-Jul-20 04:34N 22°17' E 114°10'0 0.0
2015-Jul-20 02:33N 22°17' E 114°10'2 2.5
2015-Jul-20 01:33N 22°20' E 114°09'6 2.6
2015-Jul-19 23:12N 22°15' E 114°04'812.4
2015-Jul-19 22:34N 22°18' E 114°12'1 0.7
2015-Jul-19 21:33N 22°19' E 114°12'0 0.0
2015-Jul-19 20:33N 22°19' E 114°12'0 0.1
2015-Jul-19 19:33N 22°19' E 114°12'0 0.1
2015-Jul-19 18:34N 22°19' E 114°12'0 0.0
2015-Jul-19 17:33N 22°19' E 114°12'0 0.0
2015-Jul-19 16:34N 22°19' E 114°12'0 0.0
2015-Jul-19 15:34N 22°19' E 114°12'0 0.0
2015-Jul-19 14:33N 22°19' E 114°12'0 0.0
2015-Jul-19 13:33N 22°19' E 114°12'4 3.9
2015-Jul-19 12:33N 22°17' E 114°08'1 0.6
2015-Jul-19 10:33N 22°18' E 114°09'5 3.6
2015-Jul-19 09:18N 22°16' E 114°05'5 6.6
2015-Jul-19 08:33N 22°17' E 114°10'5 4.2
2015-Jul-19 07:22N 22°16' E 114°04'8 9.3
2015-Jul-19 06:33N 22°19' E 114°12'0 0.0
2015-Jul-19 05:33N 22°19' E 114°12'0 0.0
2015-Jul-19 04:33N 22°19' E 114°12'9 2.0
2015-Jul-19 00:21N 22°15' E 114°04'6 8.1
2015-Jul-18 23:34N 22°17' E 114°10'1 0.5
2015-Jul-18 22:33N 22°17' E 114°10'5 0.8
2015-Jul-18 16:05N 22°16' E 114°04'510.3
2015-Jul-18 15:33N 22°17' E 114°10'5 4.0
2015-Jul-18 14:19N 22°16' E 114°04'5 6.5
2015-Jul-18 13:34N 22°17' E 114°09'5 4.5
2015-Jul-18 12:21N 22°15' E 114°04'5 6.5
2015-Jul-18 11:33N 22°18' E 114°09'3 2.6
2015-Jul-18 10:33N 22°17' E 114°06'  
Track history (hours):
 
Tides and Currents Weather Stations Pressure Air Temp Water Temp Dewpoint Dewpoint Depression Visibility Wind Speed Wind Dir Waves Ship Positions

First Ferry Viii

Last reported at 2015-Jul-28 09:05 UTC. Time now 2015-Jul-28 10:22 UTC.
Position N 22°16' E 114°04'.

Length 36 m; draft 1.8 m.

Type: High speed craft. MMSI: 477995030.

Date/timePositionNaut miles runAvg speedWind from/ knotsBaromVisibWave heightAir tempDewpointWater temp
2015-Jul-28 09:05N 22°16' E 114°04'5 9.9
2015-Jul-28 08:33N 22°17' E 114°10'0 0.0
2015-Jul-28 06:33N 22°17' E 114°10'6 3.8
2015-Jul-28 05:05N 22°15' E 114°04'610.7
2015-Jul-28 04:34N 22°17' E 114°10'3 2.5
2015-Jul-28 03:33N 22°20' E 114°09'0 0.0
2015-Jul-28 02:33N 22°20' E 114°09'2 1.2
2015-Jul-28 00:34N 22°17' E 114°10'7 7.3
2015-Jul-27 23:33N 22°16' E 114°02'10 9.7
2015-Jul-27 22:33N 22°19' E 114°12'0 0.0
2015-Jul-27 21:34N 22°19' E 114°12'0 0.0
2015-Jul-27 20:34N 22°19' E 114°12'0 0.0
2015-Jul-27 19:34N 22°19' E 114°12'0 0.0
2015-Jul-27 18:34N 22°19' E 114°12'0 0.0
2015-Jul-27 17:34N 22°19' E 114°12'0 0.0
2015-Jul-27 16:34N 22°19' E 114°12'0 0.0
2015-Jul-27 15:33N 22°19' E 114°12'0 0.0
2015-Jul-27 14:33N 22°19' E 114°12'0 0.0
2015-Jul-27 13:34N 22°19' E 114°12'0 0.0
2015-Jul-27 12:33N 22°19' E 114°12'7 5.9
2015-Jul-27 11:19N 22°16' E 114°05'5 6.4
2015-Jul-27 10:33N 22°17' E 114°10'3 2.7
2015-Jul-27 09:34N 22°19' E 114°12'4 3.6
2015-Jul-27 08:33N 22°18' E 114°08'4 3.2
2015-Jul-27 07:27N 22°17' E 114°05'5 5.7
2015-Jul-27 06:33N 22°17' E 114°10'0 0.2
2015-Jul-27 04:33N 22°17' E 114°10'0 0.0
2015-Jul-27 02:33N 22°17' E 114°10'1 0.9
2015-Jul-27 01:33N 22°17' E 114°11'6 2.4
2015-Jul-26 23:06N 22°16' E 114°04'713.4
2015-Jul-26 22:34N 22°19' E 114°12'0 0.3
2015-Jul-26 21:33N 22°19' E 114°12'0 0.0
2015-Jul-26 20:34N 22°19' E 114°12'0 0.0
2015-Jul-26 19:34N 22°19' E 114°12'0 0.0
2015-Jul-26 18:33N 22°19' E 114°12'0 0.0
2015-Jul-26 17:34N 22°19' E 114°12'0 0.0
2015-Jul-26 16:34N 22°19' E 114°12'0 0.0
2015-Jul-26 15:33N 22°19' E 114°12'0 0.0
2015-Jul-26 14:33N 22°19' E 114°12'0 0.0
2015-Jul-26 13:34N 22°19' E 114°12'3 2.6
2015-Jul-26 12:33N 22°17' E 114°10'5 4.2
2015-Jul-26 11:20N 22°16' E 114°04'4 4.6
2015-Jul-26 10:33N 22°17' E 114°08'3 0.6
2015-Jul-26 06:20N 22°16' E 114°05'5 5.8
2015-Jul-26 05:32N 22°19' E 114°09'0 0.4
2015-Jul-26 04:33N 22°20' E 114°09'2 2.4
2015-Jul-26 03:34N 22°17' E 114°10'5 3.7
2015-Jul-26 02:18N 22°16' E 114°05'4 6.0
2015-Jul-26 01:34N 22°17' E 114°09'6 4.5
2015-Jul-26 00:20N 22°15' E 114°04'7 8.8
2015-Jul-25 23:33N 22°18' E 114°11'3 2.6
2015-Jul-25 22:33N 22°20' E 114°09'0 0.1
2015-Jul-25 21:33N 22°20' E 114°09'0 0.0
2015-Jul-25 20:33N 22°20' E 114°09'0 0.0
2015-Jul-25 19:33N 22°20' E 114°09'0 0.0
2015-Jul-25 18:33N 22°20' E 114°09'0 0.0
2015-Jul-25 17:33N 22°20' E 114°09'0 0.0
2015-Jul-25 16:33N 22°20' E 114°09'0 0.0
2015-Jul-25 15:33N 22°20' E 114°09'0 0.0
2015-Jul-25 14:33N 22°20' E 114°09'3 2.8
2015-Jul-25 13:33N 22°19' E 114°12'3 2.6
2015-Jul-25 12:34N 22°17' E 114°09'6 4.6
2015-Jul-25 11:21N 22°15' E 114°04'6 7.0
2015-Jul-25 10:33N 22°17' E 114°10'0 0.0
2015-Jul-25 06:33N 22°17' E 114°10'0 0.0
2015-Jul-25 04:33N 22°17' E 114°10'5 3.8
2015-Jul-25 03:06N 22°15' E 114°04'610.0
2015-Jul-25 02:33N 22°17' E 114°10'3 2.6
2015-Jul-25 01:33N 22°19' E 114°12'7 3.1
2015-Jul-24 23:12N 22°16' E 114°05'711.3
2015-Jul-24 22:33N 22°19' E 114°12'0 0.0
2015-Jul-24 21:33N 22°19' E 114°12'0 0.1
2015-Jul-24 20:33N 22°19' E 114°12'0 0.1
2015-Jul-24 19:33N 22°19' E 114°12'0 0.0
2015-Jul-24 18:33N 22°19' E 114°12'0 0.0
2015-Jul-24 17:33N 22°19' E 114°12'0 0.0
2015-Jul-24 16:33N 22°19' E 114°12'0 0.0
2015-Jul-24 15:33N 22°19' E 114°12'0 0.0
2015-Jul-24 14:33N 22°19' E 114°12'0 0.0
2015-Jul-24 13:33N 22°19' E 114°12'0 0.0
2015-Jul-24 12:33N 22°19' E 114°12'7 5.2
2015-Jul-24 11:17N 22°16' E 114°05'4 5.8
2015-Jul-24 10:33N 22°17' E 114°10'5 3.8
2015-Jul-24 09:07N 22°16' E 114°04'5 9.9
2015-Jul-24 08:33N 22°17' E 114°10'5 3.7
2015-Jul-24 07:06N 22°16' E 114°04'5 9.8
2015-Jul-24 06:33N 22°17' E 114°10'5 3.3
2015-Jul-24 05:04N 22°16' E 114°05'5 9.5
2015-Jul-24 04:33N 22°17' E 114°10'5 3.2
2015-Jul-24 03:03N 22°16' E 114°05'5 9.7
2015-Jul-24 02:33N 22°17' E 114°10'2 2.5
2015-Jul-24 01:33N 22°20' E 114°09'5 1.9
2015-Jul-23 23:06N 22°17' E 114°05'712.4
2015-Jul-23 22:33N 22°18' E 114°12'1 0.8
2015-Jul-23 21:33N 22°19' E 114°12'0 0.0
2015-Jul-23 20:33N 22°19' E 114°12'0 0.1
2015-Jul-23 19:33N 22°19' E 114°12'0 0.1
2015-Jul-23 18:33N 22°19' E 114°12'0 0.0
2015-Jul-23 17:33N 22°19' E 114°12'0 0.1
2015-Jul-23 16:33N 22°19' E 114°12'0 0.1
2015-Jul-23 15:33N 22°19' E 114°12'0 0.0
2015-Jul-23 14:33N 22°19' E 114°12'0 0.0
2015-Jul-23 13:33N 22°19' E 114°12'0 0.0
2015-Jul-23 12:33N 22°19' E 114°12'5 3.6
2015-Jul-23 11:12N 22°17' E 114°07'2 1.4
2015-Jul-23 09:29N 22°17' E 114°04'5 5.4
2015-Jul-23 08:33N 22°19' E 114°09'1 1.0
2015-Jul-23 07:33N 22°20' E 114°09'0 0.0
2015-Jul-23 06:32N 22°20' E 114°09'0 0.0
2015-Jul-23 05:27N 22°20' E 114°09'0 0.0
2015-Jul-23 04:33N 22°20' E 114°09'0 0.0
2015-Jul-23 03:30N 22°20' E 114°09'0 0.0
2015-Jul-23 02:33N 22°20' E 114°09'0 0.3
2015-Jul-23 01:17N 22°19' E 114°09'8 3.8
2015-Jul-22 23:16N 22°16' E 114°02'1013.8
2015-Jul-22 22:33N 22°19' E 114°12'0 0.0
2015-Jul-22 21:33N 22°19' E 114°12'0 0.0
2015-Jul-22 20:33N 22°19' E 114°12'0 0.0
2015-Jul-22 19:33N 22°19' E 114°12'0 0.0
2015-Jul-22 18:33N 22°19' E 114°12'0 0.0
2015-Jul-22 17:33N 22°19' E 114°12'0 0.0
2015-Jul-22 16:33N 22°19' E 114°12'0 0.0
2015-Jul-22 15:33N 22°19' E 114°12'0 0.0
2015-Jul-22 14:33N 22°19' E 114°12'0 0.0
2015-Jul-22 13:33N 22°19' E 114°12'0 0.0
2015-Jul-22 12:33N 22°19' E 114°12'8 6.3
2015-Jul-22 11:21N 22°16' E 114°04'5 6.6
2015-Jul-22 10:33N 22°17' E 114°10'3 2.6
2015-Jul-22 09:33N 22°19' E 114°12'0 0.0
2015-Jul-22 08:33N 22°19' E 114°12'0 0.0
2015-Jul-22 07:34N 22°19' E 114°12'1 1.0
2015-Jul-22 06:33N 22°18' E 114°12'2 1.0
2015-Jul-22 04:33N 22°17' E 114°10'4 3.1
2015-Jul-22 03:07N 22°16' E 114°05'4 8.0
2015-Jul-22 02:33N 22°17' E 114°10'2 2.5
2015-Jul-22 01:33N 22°20' E 114°09'5 1.9
2015-Jul-21 23:09N 22°17' E 114°05'711.2
2015-Jul-21 22:33N 22°19' E 114°12'0 0.1
2015-Jul-21 21:33N 22°19' E 114°12'0 0.0
2015-Jul-21 20:33N 22°19' E 114°12'0 0.0
2015-Jul-21 19:33N 22°19' E 114°12'0 0.0
2015-Jul-21 18:33N 22°19' E 114°12'0 0.0
2015-Jul-21 17:33N 22°19' E 114°12'0 0.0
2015-Jul-21 16:33N 22°19' E 114°12'0 0.0
2015-Jul-21 15:33N 22°19' E 114°12'0 0.0
2015-Jul-21 14:33N 22°19' E 114°12'0 0.0
2015-Jul-21 13:33N 22°19' E 114°12'0 0.0
2015-Jul-21 12:33N 22°19' E 114°12'8 6.4
2015-Jul-21 11:19N 22°15' E 114°04'5 7.2
2015-Jul-21 10:33N 22°17' E 114°10'3 2.7
2015-Jul-21 09:33N 22°19' E 114°12'0 0.0
2015-Jul-21 08:33N 22°19' E 114°12'0 0.0
2015-Jul-21 07:33N 22°19' E 114°12'2 1.6
2015-Jul-21 06:33N 22°18' E 114°11'1 0.7
2015-Jul-21 04:33N 22°17' E 114°10'0 0.0
2015-Jul-21 02:33N 22°17' E 114°10'1 0.9
2015-Jul-21 01:33N 22°17' E 114°10'6 2.7
2015-Jul-20 23:14N 22°17' E 114°04'711.1
2015-Jul-20 22:33N 22°18' E 114°12'1 1.0
2015-Jul-20 21:33N 22°19' E 114°12'0 0.0
2015-Jul-20 20:33N 22°19' E 114°12'0 0.0
2015-Jul-20 19:33N 22°19' E 114°12'0 0.0
2015-Jul-20 18:33N 22°19' E 114°12'0 0.0
2015-Jul-20 17:33N 22°19' E 114°12'0 0.0
2015-Jul-20 16:33N 22°19' E 114°12'0 0.0
2015-Jul-20 15:33N 22°19' E 114°12'0 0.0
2015-Jul-20 14:33N 22°19' E 114°12'0 0.0
2015-Jul-20 13:33N 22°19' E 114°12'0 0.0
2015-Jul-20 12:33N 22°19' E 114°12'8 6.3
2015-Jul-20 11:20N 22°16' E 114°04'5 6.8
2015-Jul-20 10:33N 22°17' E 114°10'3 2.5
2015-Jul-20 09:33N 22°20' E 114°09'0 0.0
2015-Jul-20 08:33N 22°20' E 114°09'0 0.0
2015-Jul-20 07:33N 22°20' E 114°09'1 1.3
2015-Jul-20 06:33N 22°18' E 114°09'1 0.6
2015-Jul-20 04:34N 22°17' E 114°10'0 0.0
2015-Jul-20 02:33N 22°17' E 114°10'2 2.5
2015-Jul-20 01:33N 22°20' E 114°09'6 2.6
2015-Jul-19 23:12N 22°15' E 114°04'812.4
2015-Jul-19 22:34N 22°18' E 114°12'1 0.7
2015-Jul-19 21:33N 22°19' E 114°12'0 0.0
2015-Jul-19 20:33N 22°19' E 114°12'0 0.1
2015-Jul-19 19:33N 22°19' E 114°12'0 0.1
2015-Jul-19 18:34N 22°19' E 114°12'0 0.0
2015-Jul-19 17:33N 22°19' E 114°12'0 0.0
2015-Jul-19 16:34N 22°19' E 114°12'0 0.0
2015-Jul-19 15:34N 22°19' E 114°12'0 0.0
2015-Jul-19 14:33N 22°19' E 114°12'0 0.0
2015-Jul-19 13:33N 22°19' E 114°12'4 3.9
2015-Jul-19 12:33N 22°17' E 114°08'1 0.6
2015-Jul-19 10:33N 22°18' E 114°09'5 3.6
2015-Jul-19 09:18N 22°16' E 114°05'5 6.6
2015-Jul-19 08:33N 22°17' E 114°10'5 4.2
2015-Jul-19 07:22N 22°16' E 114°04'8 9.3
2015-Jul-19 06:33N 22°19' E 114°12'0 0.0
2015-Jul-19 05:33N 22°19' E 114°12'0 0.0
2015-Jul-19 04:33N 22°19' E 114°12'9 2.0
2015-Jul-19 00:21N 22°15' E 114°04'6 8.1
2015-Jul-18 23:34N 22°17' E 114°10'1 0.5
2015-Jul-18 22:33N 22°17' E 114°10'5 0.8
2015-Jul-18 16:05N 22°16' E 114°04'510.3
2015-Jul-18 15:33N 22°17' E 114°10'5 4.0
2015-Jul-18 14:19N 22°16' E 114°04'5 6.5
2015-Jul-18 13:34N 22°17' E 114°09'5 4.5
2015-Jul-18 12:21N 22°15' E 114°04'5 6.5
2015-Jul-18 11:33N 22°18' E 114°09'3 2.6
2015-Jul-18 10:33N 22°17' E 114°06'  

Dump ship's entire track history